| |
Missouri Department of Transportation

Social Media Facebook Twitter Flickr Instagram YouTube RSS

Current METAR Information for All MoDOT Locations 
AWOS Home - General Info for all Airports
Current AWOS for all Airports - Current METAR for all Airports
Glossary - Disclaimer - Other Links


Automated Weather Observation System
Date: 02-10-2016
 
Location Current METAR Record
HANNIBAL METAR KHAE 110206Z AUTO 10003KT 10SM OVC049 M05/M09 A3013 RMK AO2
HARRISONVILLE METAR KLRY 110216Z AUTO 08006KT 10SM CLR 03/M06 A3002 RMK AO2
LEBANON  No current data available
MALDEN METAR KMAW 110209Z AUTO 07006KT 10SM CLR M02/M07 A3017 RMK AO2
MARSHALL  No current data available
MARYVILLE  No current data available
MEXICO METAR KMYJ 110259Z AUTO 12004KT 10SM BKN046 BKN075 OVC090 M05/M06 A3010 RMK AO2
MOBERLY METAR KMBY 110059Z AUTO 10010KT 10SM BKN050 OVC080 M05/M09 A3009 RMK AO2
NEVADA  No current data available
PIEDMONT  No current data available
SIKESTON  No current data available
SULLIVAN  No current data available
WARSAW METAR KRAW 110212Z AUTO 09007KT 10SM CLR M01/M40 A3003 RMK AO2
About Us
How Do I...
Contact Us
Missouri Department of Transportation
Central Office
105 W. Capitol Avenue
Jefferson City, MO 65102
1-888-ASK-MODOT (275-6636)
1-866-831-6277 (Motor Carrier Services)
Driver's License Offices
horz_bar
| | |
Missouri State Government
© 2013 Missouri Department of Transportation. All Rights Reserved.   Privacy Policy.
 
 
 
 
RSS FeedYoutubeBlogFlickrTwitter Facebook